Strona główna
METAR-TAF:

METAR-TAF

Lotnisko :

Kirkwall, Szkocja

Szerokość geograficzna: 58-57N, Długość geograficzna: 002-54W, wysokość: 21 m

Aktualna obserwacja pogody

Raport powstał 22 minut temu, godzina 04:20 UTC
Wiatr 1 kt z kierunków zmiennych
Temperatura 9°C
Wilgotność 100%
Ciśnienie 1025 hPa
Widzialność 10 km lub więcej

METAR: EGPA 010420Z AUTO VRB01KT 9999 NCD 09/09 Q1025

czas: 05:42 (04:42 UTC)

Prognoza

Raport powstał 2 godziny i 47 minut temu, godzina 01:55 UTC
Prognoza ważna od 01 godzina 03 UTC do 01 godzina 12 UTC
Wiatr 9 kt od południe
Widzialność 10 km lub więcej
Brak chmur poniżej 1500 m i brak chmur cumulonimbus
Przejściowo
od 01 godzina 03 UTC do 01 godzina 08 UTC
Widzialność: 6000 m
Przerywane chmury na wysokości 200 ft
Prawdopodobieństwo 30%
od 01 godzina 03 UTC do 01 godzina 08 UTC
Widzialność: 0300 m
mgła

TAF: EGPA 010155Z 0103/0112 18009KT CAVOK TEMPO 0103/0108 6000 BKN002 PROB30 0103/0108 0300 FG VV///

Obserwacja i prognoza pogody dla ponad 4000 lotnisk (raport METAR i TAF).

Dostępne stacje oznaczono żółtymi i czerwonymi punktami na mapie.

Najedź kursorem aby zobaczyć nazwę stacji.

Kliknij aby zobaczyć obserwacje i prognozy pogody.

Aby zmienić mapę: kliknij na zielony przycisk z czarnym krzyżykiem, aby powiększyć; na zielony przycisk z myślnikiem, aby pomniejszyć; na zielone strzałki, aby przejść do map sąsiednich.


METAR-TAF: